virtualACA

Welcome To Vancouver International Airport CYVR

Hub Roster

Pilot Domicile Rank
Brian Kozushka - ACA1102CanadaChief Pilot
Jean-Michel Lazare - ACA2310FranceChief Pilot
Celso Silva - ACA3173BrazilSenior Captain
Robert Zolliecoffer - ACA3242United StatesNew Hire
Julien Chabbey - ACA3244SwitzerlandNew Hire
Doug Fisher - ACA3285CanadaNew Hire
Josh Welte - ACA3286United StatesNew Hire

Current Vatsim Weather


CYVR 242000Z 15006KT 090V180 30SM FEW025 BKN066 BKN210 20/12 A2998 RMK CU1AC6CC1 CU TR SLP152 DENSITY ALT 600FT
Vancouver International Airport